createdAt,value
2022-09-15T00:03:01.415Z,9.8
2022-09-15T00:08:01.506Z,10.1
2022-09-15T00:13:01.778Z,9.9
2022-09-15T00:28:01.618Z,8.8
2022-09-15T00:33:01.677Z,8.4
2022-09-15T00:38:01.639Z,8.9
2022-09-15T00:43:01.825Z,9.0
2022-09-15T00:48:01.648Z,8.4
2022-09-15T00:53:01.691Z,9.0
2022-09-15T00:58:01.683Z,9.7
2022-09-15T01:08:01.597Z,10.4
2022-09-15T01:13:01.812Z,11.4
2022-09-15T01:18:01.479Z,12.0
2022-09-15T01:23:01.461Z,11.8
2022-09-15T01:33:01.713Z,11.4
2022-09-15T01:38:01.705Z,12.0
2022-09-15T01:43:01.655Z,11.5
2022-09-15T01:48:01.647Z,12.7
2022-09-15T01:53:01.559Z,13.7
2022-09-15T01:58:01.736Z,14.4
2022-09-15T02:03:01.638Z,13.8
2022-09-15T02:08:01.646Z,14.4
2022-09-15T02:13:01.650Z,13.1
2022-09-15T02:18:01.712Z,12.2
2022-09-15T02:23:01.635Z,12.2
2022-09-15T02:28:01.634Z,12.4
2022-09-15T02:33:01.711Z,10.8
2022-09-15T02:38:01.621Z,11.6
2022-09-15T02:43:01.635Z,11.2
2022-09-15T02:48:01.655Z,10.5
2022-09-15T02:53:01.712Z,10.1
2022-09-15T02:58:01.864Z,11.6
2022-09-15T03:03:01.603Z,11.2
2022-09-15T03:08:01.657Z,11.7
2022-09-15T03:13:01.715Z,12.1
2022-09-15T03:18:02.190Z,11.6
2022-09-15T03:23:01.641Z,10.8
2022-09-15T03:28:01.650Z,11.1
2022-09-15T03:33:01.414Z,10.7
2022-09-15T03:38:01.607Z,10.6
2022-09-15T03:48:01.609Z,11.3
2022-09-15T03:53:01.778Z,10.6
2022-09-15T03:58:01.623Z,10.3
2022-09-15T04:03:01.645Z,9.6
2022-09-15T04:08:01.510Z,9.1
2022-09-15T04:13:01.649Z,8.6
2022-09-15T04:18:01.701Z,9.0
2022-09-15T04:23:01.612Z,9.7
2022-09-15T04:28:01.614Z,10.1
2022-09-15T04:33:01.712Z,11.3
2022-09-15T04:38:01.698Z,10.7
2022-09-15T04:43:01.618Z,10.0
2022-09-15T04:48:01.646Z,9.3
2022-09-15T04:53:01.886Z,9.6
2022-09-15T04:58:01.643Z,9.9
2022-09-15T05:03:01.658Z,11.9
2022-09-15T05:08:02.502Z,13.0
2022-09-15T05:13:01.702Z,12.9
2022-09-15T05:18:02.130Z,13.1
2022-09-15T05:23:01.753Z,13.2
2022-09-15T05:28:01.625Z,13.4
2022-09-15T05:33:01.562Z,12.6
2022-09-15T05:38:01.639Z,13.4
2022-09-15T05:43:01.634Z,13.6
2022-09-15T05:48:01.617Z,13.0
2022-09-15T05:53:01.711Z,11.3
2022-09-15T05:58:01.629Z,12.4
2022-09-15T06:03:01.716Z,13.3
2022-09-15T06:08:01.631Z,13.2
2022-09-15T06:13:01.787Z,14.3
2022-09-15T06:18:02.036Z,15.0
2022-09-15T06:23:01.617Z,14.6
2022-09-15T06:28:01.639Z,14.2
2022-09-15T06:33:01.736Z,14.3
2022-09-15T06:39:01.633Z,13.9
2022-09-15T06:44:01.649Z,13.9
2022-09-15T06:49:02.177Z,14.3
2022-09-15T06:54:02.465Z,13.9
2022-09-15T06:59:01.555Z,13.3
2022-09-15T07:04:01.616Z,12.4
2022-09-15T07:09:01.752Z,12.0
2022-09-15T07:14:02.786Z,10.6
2022-09-15T07:19:01.642Z,10.1
2022-09-15T07:24:07.748Z,9.8
2022-09-15T07:29:01.532Z,9.2
2022-09-15T07:34:01.617Z,8.5
2022-09-15T07:39:01.619Z,8.6
2022-09-15T07:44:01.866Z,8.3
2022-09-15T07:49:01.709Z,7.7
2022-09-15T07:54:01.671Z,7.6
2022-09-15T07:59:01.620Z,8.1
2022-09-15T08:04:02.024Z,8.9
2022-09-15T08:09:02.263Z,9.8
2022-09-15T08:14:01.629Z,11.5
2022-09-15T08:19:01.628Z,12.8
2022-09-15T08:24:02.077Z,12.5
2022-09-15T08:29:01.690Z,11.7
2022-09-15T08:34:01.636Z,10.6
2022-09-15T08:39:01.677Z,9.6
2022-09-15T08:44:01.642Z,8.4
2022-09-15T08:49:03.360Z,7.4
2022-09-15T08:54:01.589Z,7.3
2022-09-15T08:59:01.621Z,7.2
2022-09-15T09:04:01.732Z,6.7
2022-09-15T09:09:01.670Z,6.6
2022-09-15T09:14:01.637Z,6.5
2022-09-15T09:19:01.465Z,6.5
2022-09-15T09:24:01.578Z,6.7
2022-09-15T09:29:01.467Z,6.6
2022-09-15T09:34:01.285Z,7.2
2022-09-15T09:39:01.318Z,7.4
2022-09-15T09:44:01.488Z,7.2
2022-09-15T09:49:01.600Z,6.2
2022-09-15T09:54:01.235Z,5.5
2022-09-15T09:59:01.666Z,3.9
2022-09-15T10:04:01.277Z,3.2
2022-09-15T10:09:01.306Z,2.4
2022-09-15T10:14:01.909Z,2.3
2022-09-15T10:19:02.039Z,2.4
2022-09-15T10:24:01.655Z,2.8
2022-09-15T10:29:01.841Z,3.1
2022-09-15T10:34:01.289Z,3.5
2022-09-15T10:39:15.132Z,4.3
2022-09-15T10:44:01.221Z,4.2
2022-09-15T10:49:13.293Z,4.2
2022-09-15T10:54:01.459Z,4.4
2022-09-15T10:59:01.566Z,4.7
2022-09-15T11:04:01.550Z,4.7
2022-09-15T11:09:01.358Z,5.8
2022-09-15T11:14:17.432Z,6.4
2022-09-15T11:19:01.544Z,6.8
2022-09-15T11:24:16.955Z,7.0
2022-09-15T11:29:01.642Z,7.2
2022-09-15T11:34:01.790Z,6.6
2022-09-15T11:39:01.642Z,6.3
2022-09-15T11:44:01.715Z,6.0
2022-09-15T11:54:01.687Z,5.9
2022-09-15T12:04:01.034Z,6.5
2022-09-15T12:09:01.656Z,6.9
2022-09-15T12:14:01.755Z,7.4
2022-09-15T12:19:01.666Z,7.9
2022-09-15T12:24:17.340Z,8.4
2022-09-15T12:29:01.492Z,8.5
2022-09-15T12:34:17.363Z,8.7
2022-09-15T12:39:04.189Z,8.4
2022-09-15T12:44:01.642Z,8.0
2022-09-15T12:49:02.500Z,8.2
2022-09-15T12:54:01.704Z,8.3
2022-09-15T12:59:07.254Z,8.9
2022-09-15T13:04:01.649Z,8.8
2022-09-15T13:09:01.684Z,9.4
2022-09-15T13:14:01.735Z,9.5
2022-09-15T13:24:04.333Z,9.2
2022-09-15T13:29:03.629Z,9.5
2022-09-15T13:55:17.797Z,6.6
2022-09-15T14:00:02.973Z,6.1
2022-09-15T14:05:01.731Z,6.2
2022-09-15T14:10:01.659Z,6.3
2022-09-15T14:16:01.726Z,6.0
2022-09-15T14:21:01.748Z,5.6
2022-09-15T14:26:01.486Z,5.5
2022-09-15T14:31:01.540Z,5.4
2022-09-15T14:41:01.658Z,5.8
2022-09-15T15:05:07.775Z,4.0
2022-09-15T15:15:02.327Z,4.3
2022-09-15T15:20:13.562Z,4.1
2022-09-15T15:25:01.701Z,3.9
2022-09-15T15:30:17.267Z,3.9
2022-09-15T15:40:01.990Z,3.0
2022-09-15T15:45:17.439Z,2.7
2022-09-15T15:55:01.619Z,2.7
2022-09-15T16:00:03.432Z,2.9
2022-09-15T16:05:01.630Z,2.8
2022-09-15T16:15:09.111Z,2.4
2022-09-15T16:20:01.613Z,2.2
2022-09-15T16:25:01.604Z,1.7
2022-09-15T16:30:02.553Z,1.6
2022-09-15T16:35:01.714Z,1.8
2022-09-15T16:40:01.813Z,2.0
2022-09-15T16:45:02.370Z,2.0
2022-09-15T16:50:01.575Z,2.4
2022-09-15T17:00:03.296Z,2.7
2022-09-15T17:05:01.567Z,2.6
2022-09-15T17:15:09.714Z,2.6
2022-09-15T17:20:01.566Z,3.0
2022-09-15T17:25:08.678Z,2.4
2022-09-15T17:30:02.083Z,2.7
2022-09-15T17:35:01.632Z,3.0
2022-09-15T17:40:01.785Z,3.1
2022-09-15T17:45:02.158Z,3.1
2022-09-15T17:50:01.647Z,4.1
2022-09-15T17:55:01.734Z,4.0
2022-09-15T18:00:02.747Z,4.4
2022-09-15T18:05:01.638Z,5.2
2022-09-15T18:10:01.637Z,5.3
2022-09-15T18:15:02.934Z,4.9
2022-09-15T18:20:01.624Z,5.1
2022-09-15T18:25:02.311Z,4.8
2022-09-15T18:30:02.181Z,4.4
2022-09-15T18:35:01.650Z,4.4
2022-09-15T18:40:01.778Z,4.8
2022-09-15T18:45:02.686Z,4.7
2022-09-15T18:50:01.650Z,4.8
2022-09-15T18:55:01.656Z,4.6
2022-09-15T19:00:04.107Z,4.2
2022-09-15T19:05:01.638Z,3.6
2022-09-15T19:10:01.651Z,3.2
2022-09-15T19:15:02.994Z,2.6
2022-09-15T19:20:01.748Z,2.2
2022-09-15T19:25:01.651Z,2.0
2022-09-15T19:30:02.286Z,2.0
2022-09-15T19:35:01.660Z,2.2
2022-09-15T19:40:01.758Z,2.4
2022-09-15T19:45:02.492Z,2.4
2022-09-15T19:50:01.642Z,2.6
2022-09-15T19:55:01.796Z,2.5
2022-09-15T20:00:03.324Z,2.6
2022-09-15T20:05:01.668Z,2.6
2022-09-15T20:10:01.609Z,2.6
2022-09-15T20:15:02.124Z,2.2
2022-09-15T20:20:01.718Z,2.0
2022-09-15T20:25:01.623Z,1.8
2022-09-15T20:30:02.713Z,1.9
2022-09-15T20:35:02.281Z,1.7
2022-09-15T20:45:03.200Z,1.5
2022-09-15T20:50:01.627Z,1.3
2022-09-15T20:55:01.699Z,1.3
2022-09-15T21:00:02.397Z,1.3
2022-09-15T21:05:01.655Z,1.2
2022-09-15T21:10:01.681Z,1.2
2022-09-15T21:15:02.252Z,1.2
2022-09-15T21:20:01.631Z,0.8
2022-09-15T21:25:01.610Z,0.6
2022-09-15T21:30:02.362Z,0.6
2022-09-15T21:35:01.888Z,0.6
2022-09-15T21:45:02.022Z,0.7
2022-09-15T21:50:01.738Z,0.9
2022-09-15T21:55:01.735Z,0.7
2022-09-15T22:00:03.042Z,0.8
2022-09-15T22:05:01.642Z,1.2
2022-09-15T22:15:02.599Z,1.9
2022-09-15T22:20:01.631Z,2.5
2022-09-15T22:25:01.781Z,2.9
2022-09-15T22:30:02.541Z,2.7
2022-09-15T22:35:01.762Z,3.0
2022-09-15T22:45:02.079Z,2.8
2022-09-15T22:50:01.664Z,2.6
2022-09-15T23:00:02.488Z,2.0
2022-09-15T23:05:01.529Z,1.5
2022-09-15T23:10:01.627Z,1.1
2022-09-15T23:15:02.131Z,0.9
2022-09-15T23:20:01.705Z,0.8
2022-09-15T23:25:01.735Z,0.9
2022-09-15T23:30:02.466Z,1.0
2022-09-15T23:40:01.933Z,0.7
2022-09-15T23:45:02.473Z,0.8
2022-09-15T23:50:01.610Z,0.7
2022-09-15T23:55:01.624Z,0.6
